Aviation Digital Data Service (ADDS)

Output produced by METARs form (1748 UTC 21 November 2018)
found at http://www.aviationweather.gov/metar/data/
 
METAR text: RJBB 211730Z AUTO 09004KT 9999 NSC 14/08 Q1016 NOSIG
Conditions at: RJBB (KANSAI INTL , JP) observed 1730 UTC 21 November 2018
Temperature: 14.0°C (57°F)
Dewpoint: 8.0°C (46°F) [RH = 67%]
Pressure (altimeter): 30.00 inches Hg (1016.0 mb)
Winds: from the E (90 degrees) at 5 MPH (4 knots; 2.1 m/s)
Visibility: 6 or more miles (10+ km)
Ceiling: at least 12,000 feet AGL
Clouds: sky clear below 12,000 feet AGL
Weather: no significant weather observed at this time

METAR text: RJBB 211700Z AUTO 06005KT 9999 NSC 13/08 Q1017 NOSIG
Conditions at: RJBB (KANSAI INTL , JP) observed 1700 UTC 21 November 2018
Temperature: 13.0°C (55°F)
Dewpoint: 8.0°C (46°F) [RH = 72%]
Pressure (altimeter): 30.03 inches Hg (1017.0 mb)
Winds: from the ENE (60 degrees) at 6 MPH (5 knots; 2.6 m/s)
Visibility: 6 or more miles (10+ km)
Ceiling: at least 12,000 feet AGL
Clouds: sky clear below 12,000 feet AGL
Weather: no significant weather observed at this time

Forecast for: RJBB (KANSAI INTL , JP)
Text: TAF RJBB 211705Z 2118/2300 03008KT 9999 FEW020 BKN045
Forecast period: 1800 UTC 21 November 2018 to 0200 UTC 22 November 2018
Forecast type: FROM: standard forecast or significant change
Winds: from the NNE (30 degrees) at 9 MPH (8 knots; 4.1 m/s)
Visibility: 6 or more miles 10+ km)
Ceiling: 4500 feet AGL
Clouds: few clouds at 2000 feet AGL
broken clouds at 4500 feet AGL
Weather: no significant weather forecast for this period
Text: TEMPO 2122/2203 4000 RA BR
Forecast period: 2200 UTC 21 November 2018 to 0300 UTC 22 November 2018
Forecast type: TEMPORARY: The following changes expected for less than half the time period
Visibility: 2.49 miles (4.01 km)
Ceiling: unknown
Clouds: missing
Weather: RA BR  (moderate rain, mist)
Text: BECMG 2202/2204 31012KT
Forecast period: 0200 UTC 22 November 2018 to 0000 UTC 23 November 2018
Forecast type: BECOMING: Conditions expected to become as follows by 0400 UTC 22 November 2018
Winds: from the NW (310 degrees) at 14 MPH (12 knots; 6.2 m/s)
Visibility: 6 or more miles 10+ km)
Ceiling: 4500 feet AGL
Clouds: few clouds at 2000 feet AGL
broken clouds at 4500 feet AGL
Weather: no significant weather forecast for this period